Aviation Digital Data Service (ADDS)

Output produced by METARs form (2334 UTC 20 January 2019)
found at http://www.aviationweather.gov/metar/data/
 
Forecast for: LEBB (BILBAO/SONDICA , ES)
Text: TAF LEBB 202300Z 2100/2124 35007KT 9999 SCT015 BKN050 TX09/2114Z TN05/2106Z
Forecast period: 0000 UTC 21 January 2019 to 0000 UTC 22 January 2019
Forecast type: FROM: standard forecast or significant change
Winds: from the N (350 degrees) at 8 MPH (7 knots; 3.6 m/s)
Visibility: 6 or more miles 10+ km)
Ceiling: 5000 feet AGL
Clouds: scattered clouds at 1500 feet AGL
broken clouds at 5000 feet AGL
Weather: no significant weather forecast for this period
Text: TEMPO 2100/2115 RA
Forecast period: 0000 to 1500 UTC 21 January 2019
Forecast type: TEMPORARY: The following changes expected for less than half the time period
Visibility: missing
Ceiling: unknown
Clouds: missing
Weather: RA  (moderate rain)
Text: PROB40
Forecast period: 0000 to 1000 UTC 21 January 2019
Forecast type: TEMPORARY: The following changes expected for less than half the time period
Visibility: 1.86 miles (2.99 km)
Ceiling: at least 12,000 feet AGL
Clouds: scattered clouds at 3000 feet AGL
Weather: SHRA  (rain showers)